Decoded Metar for KHWD (HAYWARD in CA, USA) (IATA:HWD) | Meteo·Mobile Aviation Weather
aviador You're here:

KHWD Decoded Metar

HAYWARD in CA, USA
Report Time2019-02-23 22:54:00
UTC Time2019-02-23 23:11:09
Flight Rules vfr VFR
Wind290° at 09 kt
W.Decomp.*RWY 28: 9.0 kt HW 0.8 kt LCW
W.Rank290° ranks 1
Current wind is above 290° avg. (8.6)
Visibility9999 m
Phenomena:N/A
Clouds:Few 120 Hf
Expected CloudBase > 3,600 ft AGL from Temp-Dew spread
CeilingNone
Temp13°C (ISA -2)
Dew Point04°C (55% RH)
AAT8.5°C
QNH1026 hPa
Density Alt-479 ft
Elevation69 ft
Report Wrong Elevation
Raw Report
KHWD 232254Z 29009KT 10SM FEW120 13/04 A3030 RMK AO2 SLP269
T01330044=

Extra information for KHWD:More info

Metar Taf Metar & Taf Last 4 Metars F.Rules Stats Wind Profile Meteogram Temp Stats Airport Information Weather charts Add Link Nearby VenuesMetar ALERT Operation Metar Decoded Social comments

AIRNAV info for KHWD